Gideon, MO

6:33 AM CST on February 08, 2016 (GMT -0600)
Peach Orchard | | Change Station
CLOSE
Current Station
Personal Weather Station
Location: Gideon, MO
Elevation: 263 ft
Nearby Weather Stations

Elev 263 ft 36.37 °N, 89.94 °W | Updated 3 minutes ago

Partly Cloudy
Partly Cloudy
35.0 °F
Feels Like 35 °F
N
0.0
Wind Variable Wind from SW
Gusts 0.0 mph

Today
High -- | Low -- °F
--% Chance of Precip.
Yesterday
High -- | Low -- °F
Precip. -- in
Pressure 29.86 in
Visibility 10.0 miles
Clouds Scattered Clouds 8500 ft
Windchill 35 °F
Dew Point 26 °F
Humidity 70%
Rainfall 0.00 in
Snow Depth Not available.
6:55 AM 5:32 PM
Waning Crescent, 0% visible
METAR KPOF 081153Z AUTO 30007KT 10SM SCT085 03/M05 A2985 RMK AO2 SLP111 T00331050 10072 20033 56002
Pressure 29.86 in
Visibility 10.0 miles
Clouds Scattered Clouds 8500 ft
Windchill 35 °F
Dew Point 26 °F
Humidity 70%
Rainfall 0.00 in
Snow Depth Not available.
6:55 AM 5:32 PM
Waning Crescent, 0% visible
METAR KPOF 081153Z AUTO 30007KT 10SM SCT085 03/M05 A2985 RMK AO2 SLP111 T00331050 10072 20033 56002

10-Day Weather Forecast

Almanac

Astronomy

Feb. 08, 2016 Rise Set
Actual Time
Civil Twilight
Nautical Twilight
Astronomical Twilight
Moon
Length of Visible Light
Length of Day
Tomorrow will be .
, % of the Moon is Illuminated

Today's Extremes

State Highs State Lows

Community

WunderPhotos

Upload Photos

1,891,426 photos uploaded!

WunderBlog® & News

Nearby

Air Quality

  Air Quality AQ Index Pollutant
Not available.

Snow Depth

Station Depth Elevation

Earthquake Activity

City Distance Mag. Time & Date
Minimum magnitude displayed is 2.5.

Coastal Water Temperatures

Place Temperature

Stations

Nearby Weather Stations

Station Location Temp. Windchill Dew Point Humidity Wind Precip. Elev Updated Type
                   

Watches & Warnings

There are currently no watches in effect.